createdAt,value
2018-06-17T00:00:45.704Z,0.00
2018-06-17T00:01:45.711Z,0.00
2018-06-17T00:02:45.708Z,0.00
2018-06-17T00:03:45.717Z,0.00
2018-06-17T00:04:45.717Z,0.00
2018-06-17T00:05:45.736Z,0.00
2018-06-17T00:06:45.731Z,0.00
2018-06-17T00:07:45.736Z,0.00
2018-06-17T00:08:45.741Z,0.00
2018-06-17T00:09:45.746Z,0.00
2018-06-17T00:10:45.752Z,0.00
2018-06-17T00:11:45.749Z,0.00
2018-06-17T00:12:45.752Z,0.00
2018-06-17T00:13:45.765Z,0.00
2018-06-17T00:14:45.788Z,0.00
2018-06-17T00:15:45.773Z,0.00
2018-06-17T00:16:45.775Z,0.00
2018-06-17T00:17:45.780Z,0.00
2018-06-17T00:18:45.789Z,0.00
2018-06-17T00:19:45.790Z,0.00
2018-06-17T00:20:45.787Z,0.00
2018-06-17T00:21:45.794Z,0.00
2018-06-17T00:22:45.801Z,0.00
2018-06-17T00:23:45.804Z,0.00
2018-06-17T00:24:45.806Z,0.00
2018-06-17T00:25:45.823Z,0.00
2018-06-17T00:26:45.834Z,0.00
2018-06-17T00:27:45.862Z,0.00
2018-06-17T00:28:45.843Z,0.00
2018-06-17T00:29:45.837Z,0.00
2018-06-17T00:30:45.840Z,0.00
2018-06-17T00:31:45.847Z,0.00
2018-06-17T00:32:45.862Z,0.00
2018-06-17T00:33:45.857Z,0.00
2018-06-17T00:34:45.873Z,0.00
2018-06-17T00:35:45.857Z,0.00
2018-06-17T00:36:45.857Z,0.00
2018-06-17T00:37:45.866Z,0.00
2018-06-17T00:38:45.872Z,0.00
2018-06-17T00:39:45.877Z,0.00
2018-06-17T00:40:45.875Z,0.00
2018-06-17T00:41:45.885Z,0.00
2018-06-17T00:42:45.890Z,0.00
2018-06-17T00:43:45.893Z,0.00
2018-06-17T00:44:45.898Z,0.00
2018-06-17T00:45:45.904Z,0.00
2018-06-17T00:46:45.906Z,0.00
2018-06-17T00:47:45.908Z,0.00
2018-06-17T00:48:45.931Z,0.00
2018-06-17T00:49:45.920Z,0.00
2018-06-17T00:50:45.926Z,0.00
2018-06-17T00:51:45.925Z,0.00
2018-06-17T00:52:45.930Z,0.00
2018-06-17T00:53:45.941Z,0.00
2018-06-17T00:54:45.939Z,0.00
2018-06-17T00:55:45.950Z,0.00
2018-06-17T00:56:45.949Z,0.00
2018-06-17T00:57:45.949Z,0.00
2018-06-17T00:58:45.956Z,0.00
2018-06-17T00:59:45.968Z,0.00
2018-06-17T01:00:45.962Z,0.00
2018-06-17T01:01:45.972Z,0.00
2018-06-17T01:02:45.970Z,0.00
2018-06-17T01:03:46.031Z,0.00
2018-06-17T01:04:45.983Z,0.00
2018-06-17T01:05:45.998Z,0.00
2018-06-17T01:06:46.010Z,0.00
2018-06-17T01:07:45.997Z,0.00
2018-06-17T01:08:46.008Z,0.00
2018-06-17T01:09:46.022Z,0.00
2018-06-17T01:10:46.020Z,0.00
2018-06-17T01:11:46.028Z,0.00
2018-06-17T01:12:46.023Z,0.00
2018-06-17T01:13:46.018Z,0.00
2018-06-17T01:14:46.032Z,0.00
2018-06-17T01:15:46.032Z,0.00
2018-06-17T01:16:46.033Z,0.00
2018-06-17T01:17:46.038Z,0.00
2018-06-17T01:18:46.042Z,0.00
2018-06-17T01:19:46.049Z,0.00
2018-06-17T01:20:46.045Z,0.00
2018-06-17T01:21:46.052Z,0.00
2018-06-17T01:22:46.057Z,0.00
2018-06-17T01:23:46.059Z,0.00
2018-06-17T01:24:46.064Z,0.00
2018-06-17T01:25:46.074Z,0.00
2018-06-17T01:26:46.079Z,0.00
2018-06-17T01:27:46.079Z,0.00
2018-06-17T01:28:46.088Z,0.00
2018-06-17T01:29:46.086Z,0.00
2018-06-17T01:30:46.094Z,0.00
2018-06-17T01:31:46.098Z,0.00
2018-06-17T01:32:46.097Z,0.00
2018-06-17T01:33:46.105Z,0.00
2018-06-17T01:34:46.113Z,0.00
2018-06-17T01:35:46.114Z,0.00
2018-06-17T01:36:46.118Z,0.00
2018-06-17T01:37:46.128Z,0.00
2018-06-17T01:38:46.133Z,0.00
2018-06-17T01:39:46.137Z,0.00
2018-06-17T01:40:46.146Z,0.00
2018-06-17T01:41:46.180Z,0.00
2018-06-17T01:42:46.143Z,0.00
2018-06-17T01:43:46.161Z,0.00
2018-06-17T01:44:46.179Z,0.00
2018-06-17T01:45:46.158Z,0.00
2018-06-17T01:46:46.183Z,0.00
2018-06-17T01:47:46.178Z,0.00
2018-06-17T01:48:46.196Z,0.00
2018-06-17T01:49:46.185Z,0.00
2018-06-17T01:50:46.215Z,0.00
2018-06-17T01:51:46.199Z,0.00
2018-06-17T01:52:46.189Z,0.00
2018-06-17T01:53:46.194Z,0.00
2018-06-17T01:54:46.197Z,0.00
2018-06-17T01:55:46.200Z,0.00
2018-06-17T01:56:46.200Z,0.00
2018-06-17T01:57:46.202Z,0.00
2018-06-17T01:58:46.204Z,0.00
2018-06-17T01:59:46.219Z,0.00
2018-06-17T02:00:46.224Z,0.00
2018-06-17T02:01:46.232Z,0.00
2018-06-17T02:02:46.234Z,0.00
2018-06-17T02:03:46.248Z,0.00
2018-06-17T02:04:46.231Z,0.00
2018-06-17T02:05:46.240Z,0.00
2018-06-17T02:06:46.246Z,0.00
2018-06-17T02:07:46.248Z,0.00
2018-06-17T02:08:46.256Z,0.00
2018-06-17T02:09:46.251Z,0.00
2018-06-17T02:10:46.264Z,0.00
2018-06-17T02:11:46.278Z,0.00
2018-06-17T02:12:46.274Z,0.00
2018-06-17T02:13:46.287Z,0.00
2018-06-17T02:14:46.279Z,0.00
2018-06-17T02:15:46.297Z,0.00
2018-06-17T02:16:46.289Z,0.00
2018-06-17T02:17:46.299Z,0.00
2018-06-17T02:18:46.306Z,0.00
2018-06-17T02:19:46.313Z,0.00
2018-06-17T02:20:46.319Z,0.00
2018-06-17T02:21:46.319Z,0.00
2018-06-17T02:22:46.326Z,0.00
2018-06-17T02:23:46.312Z,0.00
2018-06-17T02:24:46.325Z,0.00
2018-06-17T02:25:46.320Z,0.00
2018-06-17T02:26:46.330Z,0.00
2018-06-17T02:27:46.326Z,0.00
2018-06-17T02:28:46.326Z,0.00
2018-06-17T02:29:46.341Z,0.00
2018-06-17T02:30:46.345Z,0.00
2018-06-17T02:31:46.348Z,0.00
2018-06-17T02:32:46.351Z,0.00
2018-06-17T02:33:46.353Z,0.00
2018-06-17T02:34:46.356Z,0.00
2018-06-17T02:35:46.355Z,0.00
2018-06-17T02:36:46.360Z,0.00
2018-06-17T02:37:46.369Z,0.00
2018-06-17T02:38:46.384Z,0.00
2018-06-17T02:39:46.379Z,0.00
2018-06-17T02:40:46.383Z,0.00
2018-06-17T02:41:46.384Z,0.00
2018-06-17T02:42:46.386Z,0.00
2018-06-17T02:43:46.394Z,0.00
2018-06-17T02:44:46.395Z,0.00
2018-06-17T02:45:46.406Z,0.00
2018-06-17T02:46:46.404Z,0.00
2018-06-17T02:47:46.409Z,0.00
2018-06-17T02:48:46.417Z,0.00
2018-06-17T02:49:46.410Z,0.00
2018-06-17T02:50:46.428Z,0.00
2018-06-17T02:51:46.423Z,0.00
2018-06-17T02:52:46.429Z,0.00
2018-06-17T02:53:46.434Z,0.00
2018-06-17T02:54:46.440Z,0.00
2018-06-17T02:55:46.436Z,4.00
2018-06-17T02:56:46.458Z,0.00
2018-06-17T02:57:46.443Z,0.00
2018-06-17T02:58:46.447Z,4.00
2018-06-17T02:59:46.452Z,4.00
2018-06-17T03:00:46.458Z,4.00
2018-06-17T03:19:41.310Z,20.00
2018-06-17T03:20:41.292Z,20.00
2018-06-17T03:21:41.289Z,24.00
2018-06-17T03:22:41.290Z,28.00
2018-06-17T03:23:41.301Z,28.00
2018-06-17T03:24:41.309Z,24.00
2018-06-17T03:25:41.290Z,32.00
2018-06-17T03:26:41.290Z,32.00
2018-06-17T03:27:41.292Z,32.00
2018-06-17T03:28:41.295Z,36.00
2018-06-17T03:29:41.293Z,36.00
2018-06-17T03:30:41.309Z,40.00
2018-06-17T03:31:41.304Z,40.00
2018-06-17T03:32:41.296Z,44.00
2018-06-17T03:33:41.300Z,48.00
2018-06-17T03:34:41.307Z,56.00
2018-06-17T03:35:41.317Z,64.00
2018-06-17T03:36:41.319Z,72.00
2018-06-17T03:37:41.324Z,80.00
2018-06-17T03:38:41.316Z,84.00
2018-06-17T03:39:41.326Z,96.00
2018-06-17T03:40:41.329Z,96.00
2018-06-17T03:41:41.332Z,104.00
2018-06-17T03:42:41.343Z,108.00
2018-06-17T03:43:41.341Z,108.00
2018-06-17T03:44:41.349Z,120.00
2018-06-17T03:45:41.353Z,128.00
2018-06-17T03:46:41.346Z,128.00
2018-06-17T03:47:41.357Z,132.00
2018-06-17T03:48:41.349Z,136.00
2018-06-17T03:49:41.357Z,136.00
2018-06-17T03:50:41.357Z,136.00
2018-06-17T03:51:41.362Z,140.00
2018-06-17T03:52:41.369Z,148.00
2018-06-17T03:53:41.376Z,160.00
2018-06-17T03:54:41.373Z,176.00
2018-06-17T03:55:41.374Z,188.00
2018-06-17T03:56:41.377Z,200.00
2018-06-17T03:57:41.384Z,220.00
2018-06-17T03:58:41.385Z,236.00
2018-06-17T03:59:41.389Z,252.00
2018-06-17T04:00:41.389Z,272.00
2018-06-17T04:01:41.395Z,284.00
2018-06-17T04:02:41.402Z,292.00
2018-06-17T04:03:41.402Z,300.00
2018-06-17T04:04:41.408Z,284.00
2018-06-17T04:05:41.412Z,280.00
2018-06-17T04:06:41.419Z,284.00
2018-06-17T04:07:41.425Z,284.00
2018-06-17T04:08:41.419Z,288.00
2018-06-17T04:09:41.429Z,296.00
2018-06-17T04:10:41.431Z,300.00
2018-06-17T04:11:41.434Z,312.00
2018-06-17T04:12:41.436Z,316.00
2018-06-17T04:13:41.441Z,324.00
2018-06-17T04:14:41.450Z,336.00
2018-06-17T04:15:41.453Z,356.00
2018-06-17T04:16:41.459Z,368.00
2018-06-17T04:17:41.465Z,388.00
2018-06-17T04:18:41.457Z,428.00
2018-06-17T04:19:41.465Z,448.00
2018-06-17T04:20:41.470Z,476.00
2018-06-17T04:21:41.542Z,516.00
2018-06-17T04:22:41.478Z,536.00
2018-06-17T04:23:41.484Z,616.00
2018-06-17T04:24:41.488Z,712.00
2018-06-17T04:25:41.556Z,664.00
2018-06-17T04:26:41.493Z,620.00
2018-06-17T04:27:41.495Z,640.00
2018-06-17T04:28:41.494Z,648.00
2018-06-17T04:29:41.504Z,672.00
2018-06-17T04:30:41.507Z,696.00
2018-06-17T04:31:41.533Z,672.00
2018-06-17T04:32:41.511Z,692.00
2018-06-17T04:33:41.514Z,720.00
2018-06-17T04:34:41.521Z,736.00
2018-06-17T04:35:41.526Z,780.00
2018-06-17T04:36:41.532Z,832.00
2018-06-17T04:37:41.533Z,864.00
2018-06-17T04:38:41.535Z,892.00
2018-06-17T04:39:41.545Z,864.00
2018-06-17T04:40:41.547Z,868.00
2018-06-17T04:41:41.548Z,932.00
2018-06-17T04:42:41.551Z,1072.00
2018-06-17T04:43:41.559Z,1228.00
2018-06-17T04:44:41.564Z,1308.00
2018-06-17T04:45:41.565Z,1312.00
2018-06-17T04:46:41.566Z,1332.00
2018-06-17T04:47:41.572Z,1388.00
2018-06-17T04:48:41.572Z,1496.00
2018-06-17T04:49:41.580Z,1624.00
2018-06-17T04:50:41.583Z,1832.00
2018-06-17T04:51:41.590Z,3856.00
2018-06-17T04:52:41.591Z,4668.00
2018-06-17T04:53:41.599Z,4924.00
2018-06-17T04:54:41.597Z,4896.00
2018-06-17T04:55:41.604Z,5332.00
2018-06-17T04:56:41.612Z,5480.00
2018-06-17T04:57:41.619Z,5636.00
2018-06-17T04:58:41.619Z,5824.00
2018-06-17T04:59:41.623Z,6676.00
2018-06-17T05:00:41.632Z,10880.00
2018-06-17T05:01:41.638Z,15456.00
2018-06-17T05:02:41.640Z,13660.00
2018-06-17T05:03:41.654Z,9036.00
2018-06-17T05:04:41.658Z,7140.00
2018-06-17T05:05:41.678Z,7348.00
2018-06-17T05:06:41.676Z,7616.00
2018-06-17T05:07:41.682Z,7908.00
2018-06-17T05:08:41.684Z,8116.00
2018-06-17T05:09:41.699Z,8352.00
2018-06-17T05:10:41.701Z,8500.00
2018-06-17T05:11:41.757Z,8620.00
2018-06-17T05:12:41.725Z,8904.00
2018-06-17T05:13:41.731Z,9108.00
2018-06-17T05:14:41.741Z,9404.00
2018-06-17T05:15:41.746Z,9888.00
2018-06-17T05:16:41.768Z,10040.00
2018-06-17T05:17:41.772Z,10444.00
2018-06-17T05:18:41.778Z,10760.00
2018-06-17T05:19:41.789Z,48128.00
2018-06-17T05:20:41.804Z,94784.00
2018-06-17T05:21:41.827Z,70240.00
2018-06-17T05:22:41.831Z,69216.00
2018-06-17T05:23:41.848Z,69920.00
2018-06-17T05:24:41.863Z,71232.00
2018-06-17T05:25:41.870Z,69792.00
2018-06-17T05:26:41.891Z,72672.00
2018-06-17T05:27:41.905Z,76640.00
2018-06-17T05:28:41.917Z,84416.00
2018-06-17T05:29:41.961Z,88800.00
2018-06-17T05:30:41.948Z,76832.00
2018-06-17T05:31:41.971Z,74656.00
2018-06-17T05:32:42.034Z,90528.00
2018-06-17T05:33:42.023Z,88096.00
2018-06-17T05:34:42.017Z,67232.00
2018-06-17T05:35:42.037Z,58048.00
2018-06-17T05:36:42.057Z,46464.00
2018-06-17T05:37:42.073Z,40096.00
2018-06-17T05:38:42.089Z,38624.00
2018-06-17T05:39:42.113Z,36864.00
2018-06-17T05:40:42.132Z,34240.00
2018-06-17T05:41:42.157Z,33984.00
2018-06-17T05:42:42.165Z,32640.00
2018-06-17T05:43:42.189Z,30592.00
2018-06-17T05:44:42.208Z,28320.00
2018-06-17T05:45:42.251Z,28800.00
2018-06-17T05:46:42.245Z,27424.00
2018-06-17T05:47:42.277Z,30880.00
2018-06-17T05:48:42.286Z,33280.00
2018-06-17T05:49:42.311Z,32512.00
2018-06-17T05:50:42.324Z,30592.00
2018-06-17T05:51:42.346Z,30048.00
2018-06-17T05:52:42.363Z,32672.00
2018-06-17T05:53:42.383Z,30560.00
2018-06-17T05:54:42.412Z,26496.00
2018-06-17T05:55:42.468Z,22176.00
2018-06-17T05:56:42.459Z,27296.00
2018-06-17T05:57:42.472Z,23360.00
2018-06-17T05:58:42.494Z,24064.00
2018-06-17T05:59:42.507Z,31744.00
2018-06-17T06:00:42.532Z,32544.00
2018-06-17T06:01:42.563Z,33024.00
2018-06-17T06:02:42.571Z,32896.00
2018-06-17T06:03:42.600Z,31392.00
2018-06-17T06:04:42.612Z,31040.00
2018-06-17T06:05:42.640Z,32384.00
2018-06-17T06:06:42.659Z,31360.00
2018-06-17T06:07:42.680Z,29920.00
2018-06-17T06:08:42.702Z,28384.00
2018-06-17T06:09:42.726Z,31936.00
2018-06-17T06:10:42.748Z,33120.00
2018-06-17T06:11:42.771Z,29216.00
2018-06-17T06:12:42.786Z,20416.00
2018-06-17T06:13:42.816Z,12148.00
2018-06-17T06:14:42.830Z,9104.00
2018-06-17T06:15:42.857Z,8540.00
2018-06-17T06:16:42.878Z,7328.00
2018-06-17T06:17:42.899Z,6772.00
2018-06-17T06:18:42.919Z,5704.00
2018-06-17T06:19:42.939Z,5332.00
2018-06-17T06:20:42.959Z,4912.00
2018-06-17T06:21:42.980Z,4352.00
2018-06-17T06:22:43.001Z,4580.00
2018-06-17T06:23:43.017Z,4372.00
2018-06-17T06:24:43.076Z,4196.00
2018-06-17T06:25:43.053Z,4108.00
2018-06-17T06:26:43.074Z,4036.00
2018-06-17T06:27:43.095Z,3968.00
2018-06-17T06:28:43.104Z,4024.00
2018-06-17T06:29:43.118Z,3996.00
2018-06-17T06:30:43.130Z,3976.00
2018-06-17T06:31:43.145Z,3940.00
2018-06-17T06:32:43.168Z,3932.00
2018-06-17T06:33:43.175Z,3932.00
2018-06-17T06:34:43.194Z,3764.00
2018-06-17T06:35:43.207Z,3984.00
2018-06-17T06:36:43.227Z,3668.00
2018-06-17T06:37:43.246Z,3580.00
2018-06-17T06:38:43.253Z,3580.00
2018-06-17T06:39:43.260Z,3480.00
2018-06-17T06:40:43.268Z,3484.00
2018-06-17T06:41:43.301Z,3504.00
2018-06-17T06:42:43.298Z,3560.00
2018-06-17T06:43:43.298Z,3392.00
2018-06-17T06:44:43.314Z,3488.00
2018-06-17T06:45:43.433Z,3412.00
2018-06-17T06:46:43.338Z,3448.00
2018-06-17T06:47:43.346Z,3412.00
2018-06-17T06:48:43.365Z,3340.00
2018-06-17T06:49:43.372Z,3228.00
2018-06-17T06:50:43.379Z,3256.00
2018-06-17T06:51:43.402Z,3312.00
2018-06-17T06:52:43.400Z,2960.00
2018-06-17T06:53:43.413Z,3128.00
2018-06-17T06:54:43.431Z,3100.00
2018-06-17T06:55:43.440Z,3124.00
2018-06-17T06:56:43.444Z,3368.00
2018-06-17T06:57:43.460Z,3288.00
2018-06-17T06:58:43.467Z,3104.00
2018-06-17T06:59:43.472Z,2988.00
2018-06-17T07:00:43.485Z,3004.00
2018-06-17T07:01:43.495Z,2828.00
2018-06-17T07:02:43.504Z,2844.00
2018-06-17T07:03:43.508Z,2928.00
2018-06-17T07:04:43.522Z,2372.00
2018-06-17T07:05:43.535Z,2976.00
2018-06-17T07:06:43.545Z,2956.00
2018-06-17T07:07:43.566Z,3052.00
2018-06-17T07:08:43.560Z,3072.00
2018-06-17T07:09:43.570Z,2908.00
2018-06-17T07:10:43.572Z,2972.00
2018-06-17T07:11:43.582Z,2976.00
2018-06-17T07:12:43.595Z,3036.00
2018-06-17T07:13:43.604Z,3092.00
2018-06-17T07:14:43.617Z,3084.00
2018-06-17T07:15:43.620Z,3052.00
2018-06-17T07:16:43.677Z,3060.00
2018-06-17T07:17:43.639Z,2944.00
2018-06-17T07:18:43.646Z,2888.00
2018-06-17T07:19:43.662Z,2876.00
2018-06-17T07:20:43.661Z,2820.00
2018-06-17T07:21:43.670Z,2816.00
2018-06-17T07:22:43.681Z,2836.00
2018-06-17T07:23:43.738Z,2876.00
2018-06-17T07:24:43.742Z,2940.00
2018-06-17T07:25:43.766Z,2932.00
2018-06-17T07:26:43.728Z,3208.00
2018-06-17T07:27:43.768Z,2944.00
2018-06-17T07:28:43.790Z,3000.00
2018-06-17T07:29:43.880Z,3060.00
2018-06-17T07:30:43.818Z,2992.00
2018-06-17T07:31:43.757Z,2880.00
2018-06-17T07:32:43.823Z,2888.00
2018-06-17T07:33:43.805Z,2876.00
2018-06-17T07:34:43.811Z,2900.00
2018-06-17T07:35:43.874Z,2812.00
2018-06-17T07:36:43.841Z,2716.00
2018-06-17T07:37:43.843Z,2704.00
2018-06-17T07:38:43.907Z,2564.00
2018-06-17T07:39:43.888Z,2788.00
2018-06-17T07:40:43.825Z,2780.00
2018-06-17T07:41:43.908Z,2632.00
2018-06-17T07:42:43.876Z,2756.00
2018-06-17T07:43:44.013Z,2812.00
2018-06-17T07:44:44.028Z,2904.00
2018-06-17T07:45:43.893Z,2676.00
2018-06-17T07:46:43.925Z,2548.00
2018-06-17T07:47:44.006Z,2708.00
2018-06-17T07:48:43.927Z,2628.00
2018-06-17T07:49:43.952Z,2684.00
2018-06-17T07:50:43.971Z,2632.00
2018-06-17T07:51:43.969Z,2620.00
2018-06-17T07:52:43.945Z,2584.00
2018-06-17T07:53:44.001Z,2608.00
2018-06-17T07:54:43.941Z,2528.00
2018-06-17T07:55:44.071Z,2592.00
2018-06-17T07:56:43.954Z,2596.00
2018-06-17T07:57:44.010Z,2640.00
2018-06-17T07:58:44.092Z,2636.00
2018-06-17T07:59:44.084Z,2524.00
2018-06-17T08:00:44.066Z,2456.00
2018-06-17T08:01:44.088Z,2552.00
2018-06-17T08:02:44.072Z,2576.00
2018-06-17T08:03:44.042Z,2600.00
2018-06-17T08:04:44.038Z,2624.00
2018-06-17T08:05:44.135Z,2616.00
2018-06-17T08:06:44.039Z,2592.00
2018-06-17T08:07:44.101Z,2520.00
2018-06-17T08:08:44.078Z,2304.00
2018-06-17T08:09:44.160Z,2444.00
2018-06-17T08:10:44.131Z,2440.00
2018-06-17T08:11:44.065Z,2404.00
2018-06-17T08:12:44.265Z,2536.00
2018-06-17T08:13:44.134Z,2452.00
2018-06-17T08:14:44.114Z,2500.00
2018-06-17T08:15:44.153Z,2524.00
2018-06-17T08:16:44.153Z,2508.00
2018-06-17T08:17:44.152Z,2516.00
2018-06-17T08:18:44.211Z,2464.00
2018-06-17T08:19:44.140Z,2456.00
2018-06-17T08:20:44.163Z,2516.00
2018-06-17T08:21:44.232Z,2372.00
2018-06-17T08:22:44.148Z,2612.00
2018-06-17T08:23:44.272Z,2836.00
2018-06-17T08:24:44.209Z,2764.00
2018-06-17T08:25:44.161Z,2344.00
2018-06-17T08:26:44.235Z,2748.00
2018-06-17T08:27:44.311Z,2840.00
2018-06-17T08:28:44.227Z,2920.00
2018-06-17T08:29:44.192Z,2884.00
2018-06-17T08:30:44.251Z,3016.00
2018-06-17T08:31:44.210Z,3188.00
2018-06-17T08:32:44.213Z,2996.00
2018-06-17T08:33:44.250Z,2984.00
2018-06-17T08:34:44.270Z,3008.00
2018-06-17T08:35:44.239Z,2924.00
2018-06-17T08:36:44.274Z,2904.00
2018-06-17T08:37:44.255Z,2876.00
2018-06-17T08:38:44.253Z,2816.00
2018-06-17T08:39:44.267Z,2792.00
2018-06-17T08:40:44.287Z,2792.00
2018-06-17T08:41:44.281Z,2820.00
2018-06-17T08:42:44.293Z,2888.00
2018-06-17T08:43:44.300Z,2800.00
2018-06-17T08:44:44.327Z,2864.00
2018-06-17T08:45:44.352Z,2872.00
2018-06-17T08:46:44.388Z,2880.00
2018-06-17T08:47:44.332Z,2780.00
2018-06-17T08:48:44.356Z,2720.00
2018-06-17T08:49:44.353Z,2688.00
2018-06-17T08:50:44.380Z,2692.00
2018-06-17T08:51:44.363Z,2696.00
2018-06-17T08:52:44.362Z,2664.00
2018-06-17T08:53:44.372Z,2716.00
2018-06-17T08:54:44.411Z,2668.00
2018-06-17T08:55:44.389Z,2744.00
2018-06-17T08:56:44.419Z,2876.00
2018-06-17T08:57:44.398Z,2860.00
2018-06-17T08:58:44.407Z,2864.00
2018-06-17T08:59:44.431Z,2856.00
2018-06-17T09:00:44.422Z,2740.00
2018-06-17T09:01:44.436Z,2712.00
2018-06-17T09:02:44.434Z,2660.00
2018-06-17T09:03:44.475Z,2584.00
2018-06-17T09:04:44.462Z,2480.00
2018-06-17T09:05:44.460Z,2480.00
2018-06-17T09:06:44.475Z,2476.00
2018-06-17T09:07:44.484Z,2488.00
2018-06-17T09:08:44.493Z,2516.00
2018-06-17T09:09:44.493Z,2492.00
2018-06-17T09:10:44.509Z,2388.00
2018-06-17T09:11:44.518Z,2316.00
2018-06-17T09:12:53.181Z,2288.00
2018-06-17T09:14:37.942Z,2236.00
2018-06-17T09:15:37.941Z,2216.00
2018-06-17T09:17:31.358Z,2220.00
2018-06-17T09:18:31.358Z,2176.00
2018-06-17T09:20:24.989Z,2264.00
2018-06-17T09:21:24.791Z,2232.00
2018-06-17T09:22:24.778Z,2244.00
2018-06-17T09:23:24.800Z,2284.00
2018-06-17T09:24:24.824Z,2216.00
2018-06-17T09:25:24.806Z,2240.00
2018-06-17T09:26:24.802Z,2276.00
2018-06-17T09:27:24.861Z,2292.00
2018-06-17T09:28:24.830Z,2280.00
2018-06-17T09:29:24.833Z,2268.00
2018-06-17T09:30:24.833Z,2292.00
2018-06-17T09:31:24.836Z,2332.00
2018-06-17T09:32:24.842Z,2404.00
2018-06-17T09:33:24.846Z,2472.00
2018-06-17T09:34:24.860Z,2476.00
2018-06-17T09:35:24.861Z,2464.00
2018-06-17T09:36:24.872Z,2260.00
2018-06-17T09:37:24.876Z,2476.00
2018-06-17T09:38:24.889Z,2420.00
2018-06-17T09:39:24.891Z,2480.00
2018-06-17T09:40:24.917Z,2492.00
2018-06-17T09:41:24.928Z,2488.00
2018-06-17T09:42:24.918Z,2432.00
2018-06-17T09:43:24.923Z,2476.00
2018-06-17T09:44:24.980Z,2404.00
2018-06-17T09:45:24.937Z,2484.00
2018-06-17T09:46:24.944Z,2424.00
2018-06-17T09:47:24.959Z,2428.00
2018-06-17T09:48:24.956Z,2428.00
2018-06-17T09:49:24.978Z,2420.00
2018-06-17T09:50:24.981Z,2440.00
2018-06-17T09:51:24.985Z,2500.00
2018-06-17T09:52:24.999Z,2452.00
2018-06-17T09:53:25.004Z,2404.00
2018-06-17T09:54:25.006Z,2496.00
2018-06-17T09:55:25.015Z,2408.00
2018-06-17T09:56:25.018Z,2456.00
2018-06-17T09:57:25.037Z,2572.00
2018-06-17T09:58:25.039Z,2552.00
2018-06-17T09:59:25.066Z,2684.00
2018-06-17T10:00:25.046Z,2612.00
2018-06-17T10:01:25.079Z,2652.00
2018-06-17T10:02:25.068Z,2764.00
2018-06-17T10:03:25.072Z,2800.00
2018-06-17T10:04:25.077Z,2816.00
2018-06-17T10:05:25.171Z,2980.00
2018-06-17T10:06:25.110Z,2828.00
2018-06-17T10:07:25.095Z,2876.00
2018-06-17T10:08:25.107Z,2784.00
2018-06-17T10:09:25.113Z,2888.00
2018-06-17T10:10:25.125Z,2744.00
2018-06-17T10:11:25.127Z,2752.00
2018-06-17T10:12:25.141Z,2736.00
2018-06-17T10:13:25.145Z,2700.00
2018-06-17T10:14:25.164Z,2624.00
2018-06-17T10:15:25.164Z,2616.00
2018-06-17T10:16:25.171Z,2688.00
2018-06-17T10:17:25.256Z,2508.00
2018-06-17T10:18:25.180Z,2524.00
2018-06-17T10:19:25.187Z,2528.00
2018-06-17T10:20:25.200Z,2488.00
2018-06-17T10:21:25.258Z,2608.00
2018-06-17T10:22:25.248Z,2580.00
2018-06-17T10:23:25.228Z,2500.00
2018-06-17T10:24:25.267Z,2464.00
2018-06-17T10:25:25.318Z,2488.00
2018-06-17T10:26:25.236Z,2612.00
2018-06-17T10:27:25.250Z,2640.00
2018-06-17T10:28:25.258Z,2620.00
2018-06-17T10:29:25.369Z,2492.00
2018-06-17T10:30:25.275Z,2576.00
2018-06-17T10:31:25.276Z,2528.00
2018-06-17T10:32:25.288Z,2524.00
2018-06-17T10:33:25.295Z,2492.00
2018-06-17T10:34:25.299Z,2428.00
2018-06-17T10:35:25.355Z,2444.00
2018-06-17T10:36:25.341Z,2388.00
2018-06-17T10:37:25.322Z,2464.00
2018-06-17T10:38:25.331Z,2440.00
2018-06-17T10:39:25.333Z,2516.00
2018-06-17T10:40:25.371Z,2560.00
2018-06-17T10:41:25.354Z,2488.00
2018-06-17T10:42:25.355Z,2492.00
2018-06-17T10:43:25.422Z,2388.00
2018-06-17T10:44:25.415Z,2328.00
2018-06-17T10:45:25.418Z,2252.00
2018-06-17T10:46:25.388Z,2048.00
2018-06-17T10:47:25.434Z,2208.00
2018-06-17T10:48:25.403Z,2088.00
2018-06-17T10:49:25.405Z,2156.00
2018-06-17T10:50:25.503Z,2116.00
2018-06-17T10:51:25.472Z,2224.00
2018-06-17T10:52:25.471Z,2256.00
2018-06-17T10:53:25.474Z,2308.00
2018-06-17T10:54:25.496Z,2256.00
2018-06-17T10:55:25.462Z,2260.00
2018-06-17T10:56:25.510Z,2344.00
2018-06-17T10:57:25.797Z,2460.00
2018-06-17T10:58:25.643Z,2480.00
2018-06-17T10:59:25.512Z,2600.00
2018-06-17T11:00:25.490Z,2604.00
2018-06-17T11:01:25.731Z,2620.00
2018-06-17T11:02:25.506Z,2612.00
2018-06-17T11:03:25.541Z,2572.00
2018-06-17T11:04:25.538Z,2548.00
2018-06-17T11:05:25.667Z,2568.00
2018-06-17T11:06:25.545Z,2544.00
2018-06-17T11:07:25.581Z,2676.00
2018-06-17T11:08:25.604Z,2616.00
2018-06-17T11:09:25.589Z,2576.00
2018-06-17T11:10:25.616Z,2564.00
2018-06-17T11:11:25.755Z,2484.00
2018-06-17T11:12:25.588Z,2472.00
2018-06-17T11:13:25.598Z,2444.00
2018-06-17T11:14:25.641Z,2472.00
2018-06-17T11:15:25.632Z,2564.00
2018-06-17T11:16:25.626Z,2340.00
2018-06-17T11:17:25.631Z,2432.00
2018-06-17T11:18:25.627Z,2392.00
2018-06-17T11:19:25.662Z,2332.00
2018-06-17T11:20:25.647Z,2388.00
2018-06-17T11:21:25.712Z,2328.00
2018-06-17T11:22:25.659Z,2432.00
2018-06-17T11:23:25.677Z,2380.00
2018-06-17T11:24:25.674Z,2300.00
2018-06-17T11:25:25.675Z,2384.00
2018-06-17T11:26:25.690Z,2244.00
2018-06-17T11:27:25.705Z,2324.00
2018-06-17T11:28:25.710Z,2184.00
2018-06-17T11:29:25.721Z,2176.00
2018-06-17T11:30:25.719Z,2188.00
2018-06-17T11:31:25.725Z,2100.00
2018-06-17T11:32:25.736Z,2060.00
2018-06-17T11:33:25.768Z,2016.00
2018-06-17T11:34:25.758Z,1940.00
2018-06-17T11:35:25.760Z,1888.00
2018-06-17T11:36:25.760Z,1956.00
2018-06-17T11:37:25.773Z,2072.00
2018-06-17T11:38:25.801Z,2048.00
2018-06-17T11:39:25.788Z,2016.00
2018-06-17T11:40:25.821Z,1948.00
2018-06-17T11:41:25.796Z,1900.00
2018-06-17T11:42:25.808Z,1880.00
2018-06-17T11:43:25.819Z,1972.00
2018-06-17T11:44:25.841Z,2052.00
2018-06-17T11:45:25.847Z,2228.00
2018-06-17T11:46:25.855Z,1980.00
2018-06-17T11:47:25.848Z,1952.00
2018-06-17T11:48:25.854Z,1884.00
2018-06-17T11:49:25.868Z,1840.00
2018-06-17T11:50:25.870Z,1832.00
2018-06-17T11:51:25.931Z,1908.00
2018-06-17T11:52:25.902Z,1992.00
2018-06-17T11:53:25.902Z,2116.00
2018-06-17T11:54:25.926Z,2160.00
2018-06-17T11:55:25.914Z,2064.00
2018-06-17T11:56:25.907Z,2056.00
2018-06-17T11:57:25.924Z,2056.00
2018-06-17T11:58:25.931Z,1968.00
2018-06-17T11:59:25.959Z,1948.00
2018-06-17T12:00:25.960Z,1932.00
2018-06-17T12:01:25.962Z,1928.00
2018-06-17T12:02:25.974Z,1708.00
2018-06-17T12:03:25.983Z,1796.00
2018-06-17T12:04:25.972Z,1828.00
2018-06-17T12:05:25.976Z,1824.00
2018-06-17T12:06:26.008Z,1704.00
2018-06-17T12:07:25.998Z,1708.00
2018-06-17T12:08:26.229Z,1476.00
2018-06-17T12:09:26.027Z,1908.00
2018-06-17T12:10:26.024Z,1980.00
2018-06-17T12:11:26.036Z,1916.00
2018-06-17T12:12:26.031Z,1520.00
2018-06-17T12:13:26.049Z,1860.00
2018-06-17T12:14:26.050Z,1804.00
2018-06-17T12:15:26.086Z,1748.00
2018-06-17T12:16:26.074Z,1772.00
2018-06-17T12:17:26.072Z,1608.00
2018-06-17T12:18:26.082Z,1516.00
2018-06-17T12:19:26.098Z,1432.00
2018-06-17T12:20:26.092Z,1404.00
2018-06-17T12:21:26.100Z,1400.00
2018-06-17T12:22:26.116Z,1340.00
2018-06-17T12:23:26.118Z,1256.00
2018-06-17T12:24:26.540Z,1256.00
2018-06-17T12:25:26.201Z,1188.00
2018-06-17T12:26:26.146Z,1140.00
2018-06-17T12:27:26.175Z,1148.00
2018-06-17T12:28:26.159Z,1140.00
2018-06-17T12:29:26.158Z,1136.00
2018-06-17T12:30:26.161Z,1096.00
2018-06-17T12:31:26.173Z,1044.00
2018-06-17T12:32:26.186Z,1012.00
2018-06-17T12:33:26.205Z,984.00
2018-06-17T12:34:26.207Z,996.00
2018-06-17T12:35:26.205Z,1068.00
2018-06-17T12:36:26.218Z,1148.00
2018-06-17T12:37:26.229Z,1220.00
2018-06-17T12:38:26.218Z,1316.00
2018-06-17T12:39:26.244Z,1376.00
2018-06-17T12:40:26.242Z,1488.00
2018-06-17T12:41:26.248Z,1480.00
2018-06-17T12:42:26.253Z,1488.00
2018-06-17T12:43:26.249Z,1480.00
2018-06-17T12:44:26.266Z,1472.00